Aeroporto :
LOGIN :

Iscrizione | Disclaimer

   EN    FR    IT 

 










Sommario :    VFR   VFR Marginale   IFR   IFR Intensivo   IFR Molto Intensivo
Visibilità : 
Base nubi : 
>= 8 km
>= 3000ft
5 / 8 km
1000 / 3000 ft
1500m / 5 km
500 / 1000 ft
800 / 1500m
200 / 500 ft
< 800m
< 200 ft
Simboli :   Temporali  Nebbia  Neve Forte  Precipitazioni Forti  Vento > 20 kt
SIGMETs :   Varie  Temporali  Ghiacco  Turbolenza  Onda orograficha  Ceneri Vulcaniche






- Altitudine del aeroporto : 425 ft
- Codice IATA : DTM


EDLW - Dortmund

ULTIMO METAR :
  • 171720Z 01007KT 4500 -RA BR FEW005 BKN035 03/03 Q1008

METARs OBSOLETI :
  • 171650Z 36005KT 4200 -RA BR FEW021 SCT036 03/03 Q1008
  • 171620Z 02003KT 5000 -RA FEW027 SCT037 03/02 Q1008
  • 171550Z 06003KT 030V090 4800 -RA BR FEW026 03/02 Q1008
  • 171520Z 36002KT 7000 FEW033 03/02 Q1008
  • 171450Z 36003KT 7000 FEW040 03/02 Q1009

TAF TAF EDLW
Valido dal 17 a 12 ore il 18 a 12 ore UTC


171100Z 1712/1812 03007KT CAVOK
BECMG 1718/1721 4000 RA BKN004
TEMPO 1721/1809 0800 -RADZ FG BKN001
BECMG 1800/1803 30005KT NSW
BECMG 1809/1812 21007KT 7000 BKN013



MetMap, La meteo Aeronautica in un colpo d'occhio ! - Copyright ORBIFLY Dicembre 2007 - Disclaimer

ORBIFLY MET'MAP TEAM :

Programmazione e sviluppo : Alexandra Zaïnal
Concezione e sviluppo : Baudouin d'Aumeries
Co-Programmazione e sviluppo : Marc-Olivier Méhu
Supporto tecnico e logistico : Manuel Goepfert
Aiuto per la traduzione : Arnaldo La Scala

Contatto : metmap@orbifly.com




FONTI E CREDITI :

   NOAA